createdAt,value
2023-03-19T00:00:27.550Z,97.50
2023-03-19T00:02:54.762Z,97.60
2023-03-19T00:05:21.582Z,97.70
2023-03-19T00:07:48.365Z,97.80
2023-03-19T00:10:15.164Z,97.80
2023-03-19T00:12:41.937Z,97.80
2023-03-19T00:15:13.826Z,97.80
2023-03-19T00:17:41.665Z,97.90
2023-03-19T00:20:09.465Z,98.00
2023-03-19T00:22:36.347Z,98.00
2023-03-19T00:25:03.619Z,98.00
2023-03-19T00:27:30.527Z,98.00
2023-03-19T00:29:57.270Z,98.10
2023-03-19T00:32:23.898Z,98.10
2023-03-19T00:34:50.889Z,98.10
2023-03-19T00:37:18.206Z,98.10
2023-03-19T00:39:44.959Z,98.20
2023-03-19T00:42:11.960Z,98.20
2023-03-19T00:44:38.609Z,98.20
2023-03-19T00:47:06.862Z,98.30
2023-03-19T00:49:33.630Z,98.30
2023-03-19T00:52:00.357Z,98.30
2023-03-19T00:54:27.444Z,98.30
2023-03-19T00:56:54.182Z,98.70
2023-03-19T00:59:20.946Z,98.40
2023-03-19T01:01:47.773Z,98.30
2023-03-19T01:04:15.297Z,98.30
2023-03-19T01:06:42.154Z,98.30
2023-03-19T01:09:10.585Z,98.30
2023-03-19T01:11:37.301Z,98.40
2023-03-19T01:14:04.179Z,98.30
2023-03-19T01:16:30.953Z,98.30
2023-03-19T01:18:58.407Z,98.40
2023-03-19T01:21:25.709Z,98.40
2023-03-19T01:23:52.380Z,98.30
2023-03-19T01:26:20.713Z,98.40
2023-03-19T01:28:49.710Z,98.50
2023-03-19T01:31:19.915Z,98.40
2023-03-19T01:33:55.789Z,98.30
2023-03-19T01:36:36.574Z,98.30
2023-03-19T01:39:05.960Z,98.30
2023-03-19T01:41:32.702Z,98.20
2023-03-19T01:44:31.888Z,98.20
2023-03-19T01:47:32.639Z,98.10
2023-03-19T01:50:30.115Z,98.10
2023-03-19T01:53:18.977Z,98.10
2023-03-19T01:55:49.984Z,98.10
2023-03-19T01:58:32.863Z,98.10
2023-03-19T02:01:30.155Z,98.10
2023-03-19T02:03:57.946Z,98.00
2023-03-19T02:06:30.115Z,98.00
2023-03-19T02:08:58.617Z,98.00
2023-03-19T02:11:26.242Z,98.00
2023-03-19T02:13:53.324Z,98.00
2023-03-19T02:16:20.322Z,97.90
2023-03-19T02:18:48.112Z,97.90
2023-03-19T02:21:19.907Z,97.80
2023-03-19T02:24:14.163Z,97.80
2023-03-19T02:26:51.493Z,97.80
2023-03-19T02:29:18.433Z,97.90
2023-03-19T02:31:46.116Z,97.90
2023-03-19T02:34:18.994Z,97.80
2023-03-19T02:36:52.085Z,97.80
2023-03-19T02:39:31.564Z,97.90
2023-03-19T02:41:59.097Z,97.80
2023-03-19T02:44:27.259Z,97.90
2023-03-19T02:46:54.104Z,97.90
2023-03-19T02:49:20.808Z,97.90
2023-03-19T02:51:47.628Z,97.90
2023-03-19T02:54:14.254Z,97.90
2023-03-19T02:56:41.141Z,97.90
2023-03-19T02:59:07.777Z,97.90
2023-03-19T03:01:34.646Z,97.90
2023-03-19T03:04:01.438Z,97.90
2023-03-19T03:06:28.463Z,97.80
2023-03-19T03:08:55.176Z,97.80
2023-03-19T03:11:22.737Z,97.80
2023-03-19T03:13:49.689Z,97.80
2023-03-19T03:16:17.274Z,97.70
2023-03-19T03:18:44.444Z,97.70
2023-03-19T03:21:11.656Z,97.70
2023-03-19T03:23:38.362Z,97.70
2023-03-19T03:26:06.671Z,97.70
2023-03-19T03:28:33.374Z,97.70
2023-03-19T03:31:02.141Z,97.70
2023-03-19T03:33:29.209Z,97.70
2023-03-19T03:35:56.599Z,97.80
2023-03-19T03:38:23.528Z,98.00
2023-03-19T03:40:52.498Z,97.90
2023-03-19T03:43:21.789Z,97.90
2023-03-19T03:45:49.153Z,97.90
2023-03-19T03:48:17.359Z,98.00
2023-03-19T03:50:44.077Z,98.00
2023-03-19T03:53:15.960Z,98.00
2023-03-19T03:55:42.942Z,98.00
2023-03-19T03:58:10.560Z,98.10
2023-03-19T04:00:37.279Z,98.10
2023-03-19T04:03:04.120Z,98.10
2023-03-19T04:05:30.983Z,98.10
2023-03-19T04:07:58.481Z,98.10
2023-03-19T04:10:25.854Z,98.20
2023-03-19T04:12:52.623Z,98.20
2023-03-19T04:15:20.176Z,98.30
2023-03-19T04:17:48.033Z,98.30
2023-03-19T04:20:18.564Z,98.60
2023-03-19T04:22:45.754Z,98.40
2023-03-19T04:25:12.508Z,98.40
2023-03-19T04:27:40.175Z,98.40
2023-03-19T04:30:09.812Z,98.40
2023-03-19T04:32:37.188Z,98.40
2023-03-19T04:35:04.276Z,98.50
2023-03-19T04:37:31.307Z,98.50
2023-03-19T04:39:58.150Z,98.50
2023-03-19T04:42:25.002Z,98.50
2023-03-19T04:45:02.781Z,98.60
2023-03-19T04:47:29.592Z,98.60
2023-03-19T04:49:58.970Z,98.60
2023-03-19T04:52:26.315Z,98.60
2023-03-19T04:54:54.206Z,98.60
2023-03-19T04:57:21.407Z,98.60
2023-03-19T04:59:49.710Z,98.60
2023-03-19T05:02:17.165Z,98.60
2023-03-19T05:04:44.771Z,98.60
2023-03-19T05:07:13.865Z,98.60
2023-03-19T05:09:43.912Z,98.60
2023-03-19T05:12:12.263Z,98.60
2023-03-19T05:14:44.348Z,98.60
2023-03-19T05:17:31.073Z,98.60
2023-03-19T05:20:14.292Z,98.50
2023-03-19T05:22:47.589Z,98.50
2023-03-19T05:25:16.401Z,98.50
2023-03-19T05:27:44.695Z,98.60
2023-03-19T05:30:18.363Z,98.60
2023-03-19T05:33:01.348Z,98.50
2023-03-19T05:35:40.933Z,98.50
2023-03-19T05:38:15.693Z,98.50
2023-03-19T05:40:45.598Z,98.50
2023-03-19T05:43:22.451Z,98.40
2023-03-19T05:45:52.368Z,98.40
2023-03-19T05:48:23.435Z,98.40
2023-03-19T05:50:50.957Z,98.40
2023-03-19T05:53:20.766Z,98.50
2023-03-19T05:56:04.213Z,98.50
2023-03-19T05:58:36.806Z,98.50
2023-03-19T06:01:04.867Z,98.40
2023-03-19T06:03:32.580Z,98.60
2023-03-19T06:06:04.946Z,98.40
2023-03-19T06:08:42.975Z,98.40
2023-03-19T06:11:20.382Z,98.50
2023-03-19T06:13:53.924Z,98.50
2023-03-19T06:16:21.361Z,98.50
2023-03-19T06:18:52.173Z,98.50
2023-03-19T06:21:19.555Z,98.60
2023-03-19T06:23:46.178Z,98.60
2023-03-19T06:26:17.254Z,98.70
2023-03-19T06:28:50.691Z,98.70
2023-03-19T06:31:18.288Z,98.70
2023-03-19T06:33:57.020Z,98.70
2023-03-19T06:36:29.899Z,98.70
2023-03-19T06:38:56.958Z,98.70
2023-03-19T06:41:25.040Z,98.70
2023-03-19T06:43:53.193Z,98.80
2023-03-19T06:46:19.974Z,98.90
2023-03-19T06:48:46.652Z,98.90
2023-03-19T06:51:13.270Z,99.00
2023-03-19T06:53:41.216Z,99.10
2023-03-19T06:56:07.903Z,99.20
2023-03-19T06:58:36.228Z,99.30
2023-03-19T07:01:03.776Z,99.40
2023-03-19T07:03:30.861Z,99.40
2023-03-19T07:05:57.709Z,99.40
2023-03-19T07:08:27.775Z,99.30
2023-03-19T07:10:54.467Z,99.30
2023-03-19T07:13:21.214Z,99.40
2023-03-19T07:15:48.218Z,99.40
2023-03-19T07:18:14.838Z,99.40
2023-03-19T07:20:41.484Z,99.40
2023-03-19T07:23:08.099Z,99.40
2023-03-19T07:25:34.823Z,99.50
2023-03-19T07:28:01.433Z,99.70
2023-03-19T07:30:28.254Z,99.70
2023-03-19T07:32:55.433Z,99.90
2023-03-19T07:35:22.161Z,99.90
2023-03-19T07:37:48.950Z,99.90
2023-03-19T07:40:15.948Z,99.90
2023-03-19T07:42:45.021Z,99.90
2023-03-19T07:45:12.998Z,99.90
2023-03-19T07:47:40.158Z,99.90
2023-03-19T07:50:07.489Z,99.90
2023-03-19T07:52:34.301Z,99.70
2023-03-19T07:55:01.453Z,99.40
2023-03-19T07:57:28.422Z,99.20
2023-03-19T07:59:55.156Z,99.10
2023-03-19T08:02:23.573Z,99.00
2023-03-19T08:04:50.587Z,99.10
2023-03-19T08:07:17.337Z,99.00
2023-03-19T08:09:44.166Z,98.90
2023-03-19T08:12:11.027Z,99.00
2023-03-19T08:14:37.713Z,99.00
2023-03-19T08:17:05.127Z,99.10
2023-03-19T08:19:32.559Z,99.20
2023-03-19T08:21:59.263Z,99.10
2023-03-19T08:24:25.998Z,99.00
2023-03-19T08:26:52.686Z,99.00
2023-03-19T08:29:19.390Z,98.80
2023-03-19T08:31:46.410Z,98.80
2023-03-19T08:34:13.215Z,98.70
2023-03-19T08:36:39.954Z,98.60
2023-03-19T08:39:06.674Z,98.60
2023-03-19T08:41:33.452Z,98.60
2023-03-19T08:44:00.580Z,98.60
2023-03-19T08:46:27.778Z,98.60
2023-03-19T08:48:54.700Z,98.60
2023-03-19T08:51:21.954Z,98.80
2023-03-19T08:53:48.610Z,99.00
2023-03-19T08:56:15.386Z,99.20
2023-03-19T08:58:42.672Z,99.30
2023-03-19T09:01:12.591Z,99.50
2023-03-19T09:03:40.142Z,99.40
2023-03-19T09:06:09.504Z,99.60
2023-03-19T09:08:37.181Z,99.90
2023-03-19T09:11:05.039Z,99.90
2023-03-19T09:13:32.427Z,99.80
2023-03-19T09:15:59.200Z,99.60
2023-03-19T09:18:26.022Z,99.20
2023-03-19T09:20:53.949Z,98.80
2023-03-19T09:23:21.593Z,98.30
2023-03-19T09:25:49.131Z,97.90
2023-03-19T09:28:16.436Z,97.50
2023-03-19T09:30:45.487Z,97.30
2023-03-19T09:33:12.289Z,97.10
2023-03-19T09:35:39.893Z,96.90
2023-03-19T09:38:06.984Z,96.80
2023-03-19T09:40:44.206Z,96.80
2023-03-19T09:43:27.324Z,96.50
2023-03-19T09:45:54.341Z,96.60
2023-03-19T09:48:40.792Z,96.90
2023-03-19T09:51:14.761Z,96.90
2023-03-19T09:54:01.399Z,97.60
2023-03-19T09:56:28.249Z,98.30
2023-03-19T09:58:55.111Z,98.70
2023-03-19T10:01:37.149Z,98.80
2023-03-19T10:04:24.862Z,98.30
2023-03-19T10:06:59.427Z,98.30
2023-03-19T10:09:33.408Z,99.10
2023-03-19T10:12:28.077Z,99.20
2023-03-19T10:15:30.922Z,98.30
2023-03-19T10:17:58.098Z,97.70
2023-03-19T10:21:11.142Z,98.20
2023-03-19T10:23:42.823Z,96.70
2023-03-19T10:26:13.377Z,96.90
2023-03-19T10:28:43.725Z,96.30
2023-03-19T10:31:40.500Z,95.60
2023-03-19T10:34:31.389Z,94.20
2023-03-19T10:37:04.635Z,94.10
2023-03-19T10:39:34.586Z,94.70
2023-03-19T10:42:18.205Z,94.60
2023-03-19T10:44:52.521Z,94.50
2023-03-19T10:47:20.237Z,94.80
2023-03-19T10:49:46.943Z,94.90
2023-03-19T10:52:18.349Z,94.90
2023-03-19T10:54:45.848Z,94.80
2023-03-19T10:57:43.309Z,95.10
2023-03-19T11:00:22.642Z,94.40
2023-03-19T11:02:54.585Z,94.70
2023-03-19T11:05:21.138Z,94.80
2023-03-19T11:07:56.461Z,94.80
2023-03-19T11:10:25.539Z,94.50
2023-03-19T11:12:57.858Z,94.60
2023-03-19T11:15:32.747Z,94.30
2023-03-19T11:18:06.618Z,94.10
2023-03-19T11:20:38.445Z,94.10
2023-03-19T11:23:15.695Z,93.90
2023-03-19T11:25:49.553Z,93.90
2023-03-19T11:28:21.800Z,94.00
2023-03-19T11:31:09.332Z,94.20
2023-03-19T11:33:37.796Z,94.00
2023-03-19T11:36:39.160Z,94.70
2023-03-19T11:39:28.430Z,94.30
2023-03-19T11:42:29.416Z,94.20
2023-03-19T11:45:08.197Z,93.90
2023-03-19T11:47:40.761Z,94.40
2023-03-19T11:50:54.272Z,94.30
2023-03-19T11:53:41.780Z,93.50
2023-03-19T11:56:37.762Z,93.60
2023-03-19T11:59:48.162Z,93.40
2023-03-19T12:02:53.938Z,93.40
2023-03-19T12:05:27.505Z,93.10
2023-03-19T12:07:59.256Z,93.30
2023-03-19T12:10:50.877Z,93.60
2023-03-19T12:13:34.111Z,93.10
2023-03-19T12:16:13.493Z,93.20
2023-03-19T12:19:17.807Z,93.20
2023-03-19T12:22:16.524Z,92.90
2023-03-19T12:24:58.712Z,92.60
2023-03-19T12:27:32.252Z,93.00
2023-03-19T12:30:09.220Z,93.00
2023-03-19T12:33:03.300Z,93.00
2023-03-19T12:35:35.801Z,92.80
2023-03-19T12:38:10.717Z,93.40
2023-03-19T12:40:54.661Z,93.40
2023-03-19T12:43:29.501Z,93.40
2023-03-19T12:46:16.554Z,93.60
2023-03-19T12:49:11.120Z,93.20
2023-03-19T12:51:45.449Z,93.60
2023-03-19T12:54:28.348Z,94.00
2023-03-19T12:57:00.307Z,94.20
2023-03-19T12:59:44.479Z,94.50
2023-03-19T13:02:47.428Z,94.70
2023-03-19T13:05:41.565Z,94.70
2023-03-19T13:08:20.871Z,94.50
2023-03-19T13:10:47.599Z,94.40
2023-03-19T13:13:39.565Z,94.60
2023-03-19T13:16:30.734Z,95.00
2023-03-19T13:19:10.392Z,95.30
2023-03-19T13:21:39.729Z,95.60
2023-03-19T13:24:30.887Z,95.50
2023-03-19T13:27:00.998Z,94.70
2023-03-19T13:29:32.140Z,94.90
2023-03-19T13:32:06.744Z,94.80
2023-03-19T13:34:37.967Z,94.30
2023-03-19T13:37:13.145Z,94.20
2023-03-19T13:39:41.957Z,94.00
2023-03-19T13:42:42.520Z,94.20
2023-03-19T13:45:36.613Z,93.60
2023-03-19T13:48:29.952Z,93.50
2023-03-19T13:51:03.202Z,93.20
2023-03-19T13:53:37.978Z,94.10
2023-03-19T13:56:22.490Z,93.80
2023-03-19T13:59:32.049Z,94.10
2023-03-19T14:02:00.181Z,93.60
2023-03-19T14:04:30.712Z,93.90
2023-03-19T14:07:17.194Z,93.30
2023-03-19T14:09:48.505Z,92.40
2023-03-19T14:12:18.150Z,92.50
2023-03-19T14:14:58.141Z,92.30
2023-03-19T14:17:42.058Z,92.20
2023-03-19T14:20:17.248Z,91.30
2023-03-19T14:23:08.988Z,91.40
2023-03-19T14:25:56.903Z,90.50
2023-03-19T14:28:50.092Z,90.70
2023-03-19T14:31:36.993Z,90.80
2023-03-19T14:34:26.481Z,90.30
2023-03-19T14:37:16.142Z,90.80
2023-03-19T14:39:44.754Z,90.20
2023-03-19T14:42:19.311Z,90.70
2023-03-19T14:44:57.943Z,90.20
2023-03-19T14:47:41.728Z,90.00
2023-03-19T14:50:17.380Z,90.00
2023-03-19T14:52:52.064Z,89.50
2023-03-19T14:55:18.849Z,89.20
2023-03-19T14:57:45.776Z,90.20
2023-03-19T15:00:18.208Z,90.30
2023-03-19T15:02:44.961Z,89.60
2023-03-19T15:05:21.275Z,90.30
2023-03-19T15:07:49.756Z,89.60
2023-03-19T15:10:23.397Z,90.00
2023-03-19T15:13:03.961Z,89.50
2023-03-19T15:16:01.243Z,88.90
2023-03-19T15:18:28.555Z,89.20
2023-03-19T15:20:56.640Z,90.20
2023-03-19T15:23:28.378Z,90.30
2023-03-19T15:26:03.529Z,90.00
2023-03-19T15:28:32.299Z,90.20
2023-03-19T15:31:22.175Z,90.40
2023-03-19T15:33:50.906Z,90.00
2023-03-19T15:36:31.557Z,90.20
2023-03-19T15:39:05.347Z,89.80
2023-03-19T15:41:36.503Z,90.00
2023-03-19T15:44:07.044Z,90.10
2023-03-19T15:46:36.417Z,90.20
2023-03-19T15:49:10.896Z,90.20
2023-03-19T15:51:38.446Z,90.20
2023-03-19T15:54:05.536Z,90.50
2023-03-19T15:56:32.545Z,90.50
2023-03-19T15:58:59.855Z,90.60
2023-03-19T16:01:27.910Z,90.70
2023-03-19T16:04:05.973Z,90.80
2023-03-19T16:06:37.978Z,91.00
2023-03-19T16:09:25.917Z,91.00
2023-03-19T16:11:53.747Z,90.70
2023-03-19T16:14:40.468Z,91.20
2023-03-19T16:17:13.697Z,90.90
2023-03-19T16:19:52.052Z,91.00
2023-03-19T16:22:32.708Z,91.00
2023-03-19T16:25:01.845Z,91.10
2023-03-19T16:27:36.305Z,91.50
2023-03-19T16:30:14.672Z,91.30
2023-03-19T16:32:42.399Z,91.40
2023-03-19T16:35:20.880Z,91.40
2023-03-19T16:37:49.106Z,91.00
2023-03-19T16:40:15.974Z,91.10
2023-03-19T16:42:55.906Z,91.30
2023-03-19T16:45:30.436Z,91.30
2023-03-19T16:47:59.521Z,91.30
2023-03-19T16:50:38.037Z,91.00
2023-03-19T16:53:13.055Z,90.00
2023-03-19T16:55:40.101Z,89.90
2023-03-19T16:58:16.226Z,89.90
2023-03-19T17:00:44.637Z,88.10
2023-03-19T17:03:15.241Z,88.60
2023-03-19T17:05:42.849Z,87.80
2023-03-19T17:08:09.680Z,88.00
2023-03-19T17:10:40.042Z,88.10
2023-03-19T17:13:06.897Z,87.70
2023-03-19T17:15:36.972Z,88.10
2023-03-19T17:18:13.090Z,87.40
2023-03-19T17:20:51.545Z,87.70
2023-03-19T17:23:18.903Z,87.20
2023-03-19T17:25:45.725Z,87.90
2023-03-19T17:28:12.421Z,87.70
2023-03-19T17:30:39.597Z,87.50
2023-03-19T17:33:06.518Z,87.30
2023-03-19T17:35:34.146Z,87.50
2023-03-19T17:38:01.175Z,87.40
2023-03-19T17:40:28.302Z,87.50
2023-03-19T17:42:56.303Z,87.60
2023-03-19T17:45:29.624Z,87.40
2023-03-19T17:47:58.121Z,87.20
2023-03-19T17:50:28.374Z,87.90
2023-03-19T17:52:55.171Z,88.00
2023-03-19T17:55:24.699Z,88.30
2023-03-19T17:57:52.153Z,88.30
2023-03-19T18:00:22.194Z,88.70
2023-03-19T18:02:51.558Z,89.00
2023-03-19T18:05:23.947Z,89.20
2023-03-19T18:07:53.603Z,89.40
2023-03-19T18:10:30.218Z,89.70
2023-03-19T18:12:59.842Z,90.00
2023-03-19T18:15:29.668Z,90.00
2023-03-19T18:17:58.458Z,90.00
2023-03-19T18:20:28.253Z,90.10
2023-03-19T18:22:55.174Z,90.60
2023-03-19T18:25:24.974Z,90.50
2023-03-19T18:27:52.550Z,90.60
2023-03-19T18:30:22.710Z,90.60
2023-03-19T18:32:54.498Z,90.60
2023-03-19T18:35:28.832Z,90.70
2023-03-19T18:37:56.439Z,90.80
2023-03-19T18:40:26.533Z,91.00
2023-03-19T18:42:53.411Z,91.10
2023-03-19T18:45:20.564Z,91.10
2023-03-19T18:47:48.744Z,91.30
2023-03-19T18:50:25.321Z,91.50
2023-03-19T18:52:53.469Z,91.50
2023-03-19T18:55:23.053Z,91.60
2023-03-19T18:57:56.989Z,91.70
2023-03-19T19:00:29.413Z,91.80
2023-03-19T19:02:56.602Z,91.80
2023-03-19T19:05:28.087Z,92.20
2023-03-19T19:07:56.635Z,91.90
2023-03-19T19:10:30.962Z,92.10
2023-03-19T19:12:58.581Z,92.20
2023-03-19T19:15:30.183Z,92.30
2023-03-19T19:17:57.672Z,92.60
2023-03-19T19:20:26.920Z,92.70
2023-03-19T19:22:54.242Z,92.90
2023-03-19T19:25:27.205Z,93.00
2023-03-19T19:27:58.406Z,93.40
2023-03-19T19:30:25.333Z,93.50
2023-03-19T19:32:52.047Z,93.60
2023-03-19T19:35:23.123Z,93.70
2023-03-19T19:37:50.133Z,94.00
2023-03-19T19:40:22.484Z,94.00
2023-03-19T19:42:53.289Z,94.30
2023-03-19T19:45:26.362Z,94.20
2023-03-19T19:47:53.127Z,94.30
2023-03-19T19:50:22.004Z,94.20
2023-03-19T19:52:48.794Z,94.30
2023-03-19T19:55:16.626Z,94.30
2023-03-19T19:57:44.033Z,94.30
2023-03-19T20:00:22.858Z,94.30
2023-03-19T20:02:50.829Z,94.30
2023-03-19T20:05:26.546Z,94.30
2023-03-19T20:07:55.958Z,94.30
2023-03-19T20:10:25.441Z,94.20
2023-03-19T20:12:54.760Z,94.20
2023-03-19T20:15:25.082Z,94.20
2023-03-19T20:17:53.992Z,94.10
2023-03-19T20:20:29.593Z,94.20
2023-03-19T20:22:57.789Z,94.30
2023-03-19T20:25:27.728Z,94.20
2023-03-19T20:27:59.692Z,94.20
2023-03-19T20:30:30.492Z,94.20
2023-03-19T20:32:58.068Z,94.20
2023-03-19T20:35:30.626Z,94.20
2023-03-19T20:37:58.142Z,94.20
2023-03-19T20:40:52.439Z,94.10
2023-03-19T20:43:34.520Z,94.10
2023-03-19T20:46:04.757Z,94.10
2023-03-19T20:48:32.669Z,94.10
2023-03-19T20:51:01.433Z,94.10
2023-03-19T20:53:28.696Z,94.00
2023-03-19T20:55:55.428Z,94.00
2023-03-19T20:58:29.057Z,94.00
2023-03-19T21:00:57.752Z,94.00
2023-03-19T21:03:27.661Z,94.00
2023-03-19T21:06:17.947Z,94.10
2023-03-19T21:08:48.015Z,94.10
2023-03-19T21:11:20.580Z,94.10
2023-03-19T21:13:48.556Z,94.20
2023-03-19T21:16:20.831Z,94.10
2023-03-19T21:18:48.472Z,94.10
2023-03-19T21:21:16.761Z,94.10
2023-03-19T21:23:53.499Z,94.10
2023-03-19T21:26:23.524Z,94.10
2023-03-19T21:28:58.950Z,94.20
2023-03-19T21:31:26.053Z,93.90
2023-03-19T21:33:52.760Z,94.20
2023-03-19T21:36:19.514Z,94.30
2023-03-19T21:38:46.539Z,94.30
2023-03-19T21:41:35.709Z,94.30
2023-03-19T21:44:15.022Z,94.40
2023-03-19T21:46:44.391Z,94.40
2023-03-19T21:49:12.066Z,94.40
2023-03-19T21:51:38.862Z,94.40
2023-03-19T21:54:05.732Z,94.40
2023-03-19T21:56:40.883Z,94.40
2023-03-19T21:59:21.970Z,94.30
2023-03-19T22:01:48.827Z,94.30
2023-03-19T22:04:15.741Z,94.30
2023-03-19T22:06:42.952Z,94.20
2023-03-19T22:09:09.648Z,94.20
2023-03-19T22:11:38.336Z,94.10
2023-03-19T22:14:18.890Z,94.00
2023-03-19T22:16:46.952Z,94.00
2023-03-19T22:19:15.749Z,94.00
2023-03-19T22:21:42.405Z,94.00
2023-03-19T22:24:09.048Z,94.00
2023-03-19T22:26:38.626Z,94.00
2023-03-19T22:29:19.224Z,94.00
2023-03-19T22:31:49.004Z,94.00
2023-03-19T22:34:17.732Z,94.00
2023-03-19T22:36:44.606Z,94.00
2023-03-19T22:39:11.479Z,94.00
2023-03-19T22:41:42.517Z,94.00
2023-03-19T22:44:19.256Z,94.10
2023-03-19T22:46:46.532Z,94.10
2023-03-19T22:49:15.304Z,94.20
2023-03-19T22:51:42.114Z,94.30
2023-03-19T22:54:11.042Z,94.30
2023-03-19T22:56:37.981Z,94.30
2023-03-19T22:59:04.948Z,94.40
2023-03-19T23:01:46.593Z,94.40
2023-03-19T23:04:19.525Z,94.40
2023-03-19T23:06:46.917Z,94.30
2023-03-19T23:09:35.635Z,94.40
2023-03-19T23:12:03.059Z,94.40
2023-03-19T23:14:31.289Z,94.40
2023-03-19T23:17:04.134Z,94.80
2023-03-19T23:19:32.066Z,94.50
2023-03-19T23:22:00.321Z,94.50
2023-03-19T23:24:27.889Z,94.70
2023-03-19T23:26:56.720Z,94.80
2023-03-19T23:29:29.375Z,95.00
2023-03-19T23:31:58.520Z,95.10
2023-03-19T23:34:26.611Z,95.30
2023-03-19T23:36:53.500Z,95.50
2023-03-19T23:39:21.037Z,95.60
2023-03-19T23:41:49.697Z,95.80
2023-03-19T23:44:19.329Z,95.90
2023-03-19T23:46:49.249Z,96.10
2023-03-19T23:49:27.132Z,96.20
2023-03-19T23:51:53.770Z,96.30
2023-03-19T23:54:31.447Z,96.30
2023-03-19T23:57:01.002Z,96.50
2023-03-19T23:59:32.443Z,96.50
